Weather at Endelave Airfield

Public forecast

Using degrees Celsius for public forecast. Weather courtesy of forecast.io.

Closest aviation weather report (METAR) to Endelave Airfield

Closest report is Odense Airport, 17.0 nm (31.6 km) S.

2024/07/25 06:20 (retrieved 27 minutes ago)

EKOD 250620Z 25003KT 9999 BKN022 15/11 Q1015

Closest aviation forecast (TAF) to Endelave Airfield

Closest forecast is Aarhus Airport, 35.1 nm (65.0 km) NNE.

2024/07/25 06:31 (retrieved 16 minutes ago)

TAF EKAH 250502Z 2506/2606 25006KT 9999 SCT040 BECMG 2603/2606 SHRA BKN012 SCT030CB